Time;durP1;ratioP1;P1;durP2;ratioP2;P2;SDS_P1;SDS_P2;PMS_P1;PMS_P2;Temp;Humidity;BMP_temperature;BMP_pressure;BME280_temperature;BME280_humidity;BME280_pressure;Samples;Min_cycle;Max_cycle;Signal;HPM_P1;HPM_P2
2022/06/02 00:00:05;;;;;;;1.27;1.17;;;15.80;99.90;17.10;96830.00;;;;4991878;28;20202;-64
2022/06/02 00:03:20;;;;;;;1.50;1.07;;;16.00;99.90;17.10;96835.00;;;;4992083;28;20203;-65
2022/06/02 00:06:17;;;;;;;1.53;1.23;;;15.80;99.90;17.00;96834.00;;;;4991504;28;20233;-65
2022/06/02 00:09:17;;;;;;;1.03;0.93;;;15.80;99.90;16.90;96836.00;;;;4991195;28;20219;-64
2022/06/02 00:12:13;;;;;;;1.13;1.00;;;15.90;99.90;16.80;96845.00;;;;4990715;28;20229;-64
2022/06/02 00:15:15;;;;;;;1.87;1.33;;;15.60;99.90;16.70;96841.00;;;;4991672;28;20274;-64
2022/06/02 00:18:13;;;;;;;1.93;1.43;;;15.80;99.90;16.70;96847.00;;;;4984518;28;20597;-65
2022/06/02 00:21:16;;;;;;;2.20;1.13;;;15.50;99.90;16.70;96843.00;;;;4983331;28;20753;-64
2022/06/02 00:24:15;;;;;;;1.60;1.23;;;15.50;99.90;16.80;96842.00;;;;4991620;28;20584;-65
2022/06/02 00:27:13;;;;;;;1.40;1.30;;;15.60;99.90;16.60;96851.00;;;;4990407;28;20230;-65
2022/06/02 00:30:15;;;;;;;2.17;1.17;;;15.40;99.90;16.50;96846.00;;;;4989727;28;20195;-65
2022/06/02 00:33:21;;;;;;;1.50;1.20;;;15.50;99.90;16.50;96859.00;;;;4990114;28;20541;-65
2022/06/02 00:36:24;;;;;;;1.80;1.57;;;15.40;99.90;16.40;96857.00;;;;4989964;28;20564;-65
2022/06/02 00:39:16;;;;;;;1.63;1.30;;;15.50;99.90;16.40;96865.00;;;;4990076;28;20246;-65
2022/06/02 00:42:29;;;;;;;1.70;1.60;;;15.30;99.90;16.10;96857.00;;;;4990471;28;20222;-66
2022/06/02 00:45:20;;;;;;;1.83;1.47;;;15.20;99.90;16.10;96863.00;;;;4990588;28;20717;-65
2022/06/02 00:48:18;;;;;;;1.77;1.27;;;15.10;99.90;16.10;96866.00;;;;4984423;28;20233;-65
2022/06/02 00:51:13;;;;;;;1.70;1.60;;;14.90;99.90;16.00;96873.00;;;;4990958;28;20214;-65
2022/06/02 00:57:35;;;;;;;1.43;1.33;;;15.00;99.90;16.00;96883.00;;;;4990452;28;20234;-66
2022/06/02 01:00:32;;;;;;;1.93;1.67;;;14.80;99.90;15.90;96887.00;;;;4990035;28;20225;-66
2022/06/02 01:03:24;;;;;;;2.50;1.43;;;14.80;99.90;15.90;96889.00;;;;4989591;28;20202;-65
2022/06/02 01:06:52;;;;;;;1.60;1.50;;;14.70;99.90;15.90;96894.00;;;;4990156;28;20226;-65
2022/06/02 01:10:10;;;;;;;1.63;1.50;;;14.80;99.90;15.90;96893.00;;;;4990177;28;20209;-65
2022/06/02 01:13:29;;;;;;;1.93;1.83;;;14.20;99.90;15.90;96897.00;;;;4990619;28;20207;-65
2022/06/02 01:16:25;;;;;;;3.23;1.67;;;14.70;99.90;15.50;96901.00;;;;4990998;28;20222;-65
2022/06/02 01:19:52;;;;;;;1.40;1.30;;;14.40;99.90;15.20;96893.00;;;;4980189;28;20230;-65
2022/06/02 01:23:23;;;;;;;1.83;1.73;;;14.30;99.90;15.20;96892.00;;;;4990741;28;20210;-66
2022/06/02 01:26:42;;;;;;;1.40;1.30;;;14.20;99.90;14.90;96888.00;;;;4989327;28;20268;-65
2022/06/02 01:30:17;;;;;;;2.10;1.80;;;14.40;99.90;14.90;96891.00;;;;4989618;28;20205;-65
2022/06/02 01:33:16;;;;;;;2.37;1.87;;;14.00;99.90;14.50;96907.00;;;;4989923;28;20217;-63
2022/06/02 01:36:16;;;;;;;1.73;1.63;;;13.90;99.90;14.50;96909.00;;;;4989722;28;20202;-65
2022/06/02 01:39:21;;;;;;;1.60;1.50;;;13.60;99.90;14.80;96916.00;;;;4990423;28;20245;-65
2022/06/02 01:42:22;;;;;;;1.90;1.80;;;13.80;99.90;15.00;96906.00;;;;4990325;28;20206;-63
2022/06/02 01:45:28;;;;;;;3.40;2.10;;;13.60;99.90;15.00;96911.00;;;;4990364;28;20574;-65
2022/06/02 01:48:29;;;;;;;1.53;1.43;;;13.70;99.90;15.00;96899.00;;;;4985138;28;21036;-65
2022/06/02 01:51:31;;;;;;;5.63;1.83;;;13.90;99.90;15.10;96908.00;;;;4989493;28;20210;-64
2022/06/02 01:54:33;;;;;;;2.10;2.00;;;13.70;99.90;14.90;96907.00;;;;4989734;28;20209;-65
2022/06/02 01:57:41;;;;;;;5.50;1.80;;;14.00;99.90;14.40;96907.00;;;;4989083;28;20735;-65
2022/06/02 02:00:34;;;;;;;6.30;5.17;;;13.70;99.90;14.50;96897.00;;;;4989610;28;20214;-65
2022/06/02 02:03:32;;;;;;;2.00;1.80;;;13.40;99.90;14.50;96905.00;;;;4989994;28;20206;-65
2022/06/02 02:06:39;;;;;;;2.43;2.23;;;13.60;99.90;14.70;96902.00;;;;4989294;28;20226;-64
2022/06/02 02:09:40;;;;;;;2.37;1.80;;;13.50;99.90;14.50;96895.00;;;;4989902;28;20213;-65
2022/06/02 02:12:50;;;;;;;4.33;2.30;;;13.60;99.90;14.50;96902.00;;;;4989421;28;20209;-64
2022/06/02 02:15:50;;;;;;;3.63;1.63;;;13.50;99.90;14.60;96904.00;;;;4990677;28;20926;-64
2022/06/02 02:18:54;;;;;;;1.73;1.57;;;13.60;99.90;14.30;96910.00;;;;4989320;28;20353;-65
2022/06/02 02:21:57;;;;;;;3.67;2.27;;;13.50;99.90;14.20;96903.00;;;;4993669;28;20233;-65
2022/06/02 02:25:12;;;;;;;4.70;2.33;;;13.40;99.90;14.40;96900.00;;;;4993584;28;20198;-64
2022/06/02 02:28:16;;;;;;;2.50;1.90;;;13.20;99.90;14.60;96902.00;;;;4992499;28;20224;-63
2022/06/02 02:31:21;;;;;;;4.07;2.37;;;13.30;99.90;14.70;96908.00;;;;4993228;28;20593;-65
2022/06/02 02:34:36;;;;;;;8.03;2.10;;;13.20;99.90;14.10;96918.00;;;;4993694;28;20212;-64
2022/06/02 02:37:37;;;;;;;3.13;1.87;;;13.10;99.90;13.80;96908.00;;;;4992739;28;20242;-64
2022/06/02 02:40:31;;;;;;;3.97;1.90;;;12.90;99.90;13.70;96908.00;;;;4984357;28;20204;-65
2022/06/02 02:43:25;;;;;;;5.93;2.40;;;13.20;99.90;13.90;96901.00;;;;4993258;28;20574;-65
2022/06/02 02:46:22;;;;;;;3.10;2.33;;;12.60;99.90;13.90;96905.00;;;;4992658;28;20230;-64
2022/06/02 02:49:21;;;;;;;2.20;2.10;;;13.20;99.90;13.70;96894.00;;;;4992560;28;20233;-65
2022/06/02 02:52:23;;;;;;;6.10;3.00;;;13.00;99.90;13.70;96907.00;;;;4992814;28;20239;-64
2022/06/02 02:55:19;;;;;;;3.33;2.10;;;13.00;99.90;13.80;96901.00;;;;4992860;28;20712;-64
2022/06/02 02:58:17;;;;;;;2.93;2.63;;;12.90;99.90;14.00;96895.00;;;;4992168;28;20219;-65
2022/06/02 03:01:12;;;;;;;2.87;2.67;;;12.90;99.90;14.10;96899.00;;;;4993343;28;20201;-63
2022/06/02 03:04:30;;;;;;;3.47;3.03;;;12.90;99.90;14.10;96913.00;;;;4992599;28;20194;-65
2022/06/02 03:07:21;;;;;;;4.97;2.70;;;12.80;99.90;14.00;96925.00;;;;4992381;28;20234;-64
2022/06/02 03:10:18;;;;;;;4.60;2.43;;;13.10;99.90;13.90;96917.00;;;;4993014;28;20195;-64
2022/06/02 03:13:34;;;;;;;2.10;2.00;;;12.80;99.90;13.90;96919.00;;;;4993131;28;20689;-63
2022/06/02 03:16:24;;;;;;;2.23;2.00;;;12.90;99.90;14.10;96924.00;;;;4992830;28;20206;-64
2022/06/02 03:19:22;;;;;;;4.43;2.67;;;12.90;99.90;14.10;96916.00;;;;4981598;28;20233;-64
2022/06/02 03:22:32;;;;;;;2.63;2.43;;;12.80;99.90;14.10;96922.00;;;;4992348;28;20214;-64
2022/06/02 03:25:31;;;;;;;3.50;2.27;;;12.90;99.90;14.10;96922.00;;;;4991616;28;20202;-64
2022/06/02 03:28:26;;;;;;;1.90;1.80;;;13.30;99.90;13.80;96931.00;;;;4991978;28;20222;-64
2022/06/02 03:31:21;;;;;;;4.20;2.47;;;12.70;99.90;13.60;96920.00;;;;4990690;28;20209;-65
2022/06/02 03:34:20;;;;;;;2.37;2.17;;;12.80;99.90;13.60;96919.00;;;;4992166;28;20206;-65
2022/06/02 03:37:32;;;;;;;5.33;3.03;;;12.60;99.90;13.90;96926.00;;;;4991654;28;20277;-66
2022/06/02 03:41:02;;;;;;;6.20;2.57;;;12.60;99.90;13.80;96934.00;;;;4981929;28;20577;-66
2022/06/02 03:43:59;;;;;;;3.23;2.90;;;12.80;99.90;13.80;96933.00;;;;4992459;28;20237;-64
2022/06/02 03:47:11;;;;;;;2.90;2.57;;;12.60;99.90;13.80;96920.00;;;;4982101;28;20226;-65
2022/06/02 03:50:25;;;;;;;4.00;2.80;;;12.60;99.90;13.70;96940.00;;;;4982528;28;20746;-65
2022/06/02 03:53:36;;;;;;;4.00;2.70;;;12.70;99.90;13.40;96940.00;;;;4992276;28;20207;-64
2022/06/02 03:56:47;;;;;;;3.90;2.47;;;12.70;99.90;13.80;96939.00;;;;4992162;28;20203;-64
2022/06/02 04:00:07;;;;;;;3.90;2.67;;;12.60;99.90;13.80;96935.00;;;;4991837;28;20229;-63
2022/06/02 04:03:01;;;;;;;2.10;1.90;;;12.70;99.90;13.30;96935.00;;;;4998899;28;20208;-63
2022/06/02 04:06:14;;;;;;;2.67;2.33;;;12.60;99.90;13.30;96944.00;;;;4992171;28;20199;-65
2022/06/02 04:09:31;;;;;;;3.87;2.77;;;12.50;99.90;13.40;96941.00;;;;4999510;28;20230;-65
2022/06/02 04:16:48;;;;;;;3.03;2.83;;;12.50;99.90;13.90;96954.00;;;;4991575;28;20705;-65
2022/06/02 04:23:37;;;;;;;3.30;3.07;;;12.50;99.90;14.10;96948.00;;;;4992487;28;20221;-65
2022/06/02 04:26:55;;;;;;;2.90;2.70;;;12.90;99.90;14.10;96949.00;;;;4998804;28;20233;-65
2022/06/02 04:30:03;;;;;;;3.20;2.90;;;13.10;99.90;13.80;96943.00;;;;4998519;28;20199;-65
2022/06/02 04:33:03;;;;;;;8.60;5.07;;;12.90;99.90;13.70;96938.00;;;;4998026;28;20209;-65
2022/06/02 04:36:04;;;;;;;7.37;5.33;;;12.80;99.90;14.10;96941.00;;;;4991864;28;20198;-65
2022/06/02 04:41:35;;;;;;;3.17;2.97;;;13.40;99.90;14.40;96960.00;;;;4994997;28;20249;-67
2022/06/02 04:44:34;;;;;;;4.47;2.60;;;13.00;99.90;14.60;96960.00;;;;4992482;28;20240;-67
2022/06/02 04:47:38;;;;;;;3.93;3.63;;;13.30;99.90;14.80;96959.00;;;;4994318;28;20234;-67
2022/06/02 04:50:36;;;;;;;2.23;2.03;;;13.30;99.90;14.20;96957.00;;;;5015052;28;20216;-67
2022/06/02 04:53:34;;;;;;;3.10;2.80;;;13.40;99.90;14.50;96960.00;;;;5030430;28;20205;-66
2022/06/02 04:56:32;;;;;;;3.27;3.00;;;13.30;99.90;14.40;96960.00;;;;5030311;28;20212;-65
2022/06/02 04:59:29;;;;;;;3.27;2.70;;;13.50;99.90;15.00;96961.00;;;;5021904;28;20610;-67
2022/06/02 05:02:32;;;;;;;4.87;3.13;;;13.70;99.90;15.50;96971.00;;;;5007008;28;20205;-67
2022/06/02 05:05:30;;;;;;;2.80;2.60;;;14.00;99.90;15.50;96966.00;;;;5020206;28;20209;-66
2022/06/02 05:08:42;;;;;;;6.13;2.60;;;14.00;99.90;15.70;96965.00;;;;5005771;28;20229;-66
2022/06/02 05:11:46;;;;;;;3.83;2.50;;;14.20;99.90;15.80;96982.00;;;;5009037;28;20198;-66
2022/06/02 05:14:48;;;;;;;3.63;3.33;;;14.30;99.90;15.70;96983.00;;;;5007060;28;20197;-66
2022/06/02 05:18:02;;;;;;;3.60;3.27;;;14.40;99.90;15.90;96986.00;;;;5016478;28;20211;-67
2022/06/02 05:21:28;;;;;;;3.50;2.80;;;14.70;99.90;15.70;96979.00;;;;5026976;28;20573;-66
2022/06/02 05:24:44;;;;;;;3.77;2.80;;;14.50;99.90;15.80;96996.00;;;;5006269;28;20201;-66
2022/06/02 05:28:20;;;;;;;2.03;1.90;;;14.80;99.90;15.70;97003.00;;;;5006290;28;20230;-66
2022/06/02 05:31:55;;;;;;;3.23;2.90;;;14.60;99.90;16.00;97005.00;;;;5010187;28;20210;-66
2022/06/02 05:35:28;;;;;;;2.70;2.50;;;14.80;99.90;15.70;97000.00;;;;5009447;28;20212;-66
2022/06/02 05:38:58;;;;;;;6.73;2.80;;;14.70;99.90;16.10;97005.00;;;;5006255;28;20233;-66
2022/06/02 05:42:05;;;;;;;8.40;2.67;;;15.10;99.90;16.30;96998.00;;;;5019382;28;20201;-74
2022/06/02 05:45:26;;;;;;;3.93;2.80;;;14.60;99.90;16.30;97000.00;;;;4998318;28;20216;-74
2022/06/02 05:48:38;;;;;;;3.80;2.90;;;15.00;99.90;16.50;96983.00;;;;5003302;28;20622;-75
2022/06/02 05:51:36;;;;;;;3.03;2.83;;;15.10;99.90;16.70;96985.00;;;;5007323;28;20209;-74
2022/06/02 05:54:39;;;;;;;3.67;3.37;;;15.30;99.90;16.80;96992.00;;;;5031372;28;20197;-71
2022/06/02 05:57:38;;;;;;;5.87;3.33;;;15.50;99.90;17.00;96990.00;;;;5033974;28;20205;-75
2022/06/02 06:00:38;;;;;;;7.33;4.20;;;15.80;99.90;17.10;96985.00;;;;5020353;28;20207;-74
2022/06/02 06:04:00;;;;;;;4.33;3.87;;;15.70;99.90;17.60;96989.00;;;;5012359;28;20287;-73
2022/06/02 06:06:53;;;;;;;5.57;4.40;;;16.70;99.90;17.50;97000.00;;;;5008669;28;20197;-74
2022/06/02 06:09:59;;;;;;;5.80;4.70;;;16.20;99.90;17.60;97007.00;;;;5022333;28;20225;-74
2022/06/02 06:13:16;;;;;;;7.37;4.47;;;16.20;99.90;18.20;97002.00;;;;5033278;28;20208;-75
2022/06/02 06:16:13;;;;;;;6.03;5.03;;;16.60;99.90;18.40;97003.00;;;;5028770;28;20202;-74
2022/06/02 06:19:38;;;;;;;5.97;4.87;;;17.30;99.90;18.50;97006.00;;;;5004141;28;20225;-73
2022/06/02 06:23:01;;;;;;;6.47;4.40;;;17.00;99.90;19.00;97011.00;;;;5013401;28;20544;-74
2022/06/02 06:26:24;;;;;;;5.07;4.57;;;16.70;99.90;19.10;97007.00;;;;5009086;28;20198;-74
2022/06/02 06:29:37;;;;;;;10.60;5.10;;;17.40;99.90;19.20;97002.00;;;;5010881;28;20226;-74
2022/06/02 06:32:39;;;;;;;5.00;4.50;;;17.60;99.90;19.70;97013.00;;;;5011815;28;20201;-74
2022/06/02 06:35:55;;;;;;;5.67;4.77;;;17.70;99.90;20.30;97003.00;;;;5009641;28;20207;-74
2022/06/02 06:39:04;;;;;;;5.07;4.27;;;18.30;99.90;20.70;97003.00;;;;5033053;28;20228;-74
2022/06/02 06:42:17;;;;;;;7.53;4.80;;;18.60;99.90;21.00;97017.00;;;;5008493;28;20190;-73
2022/06/02 06:45:16;;;;;;;4.37;3.97;;;18.60;99.90;21.30;97015.00;;;;5004168;28;20194;-74
2022/06/02 06:48:15;;;;;;;4.73;4.33;;;19.00;99.90;21.40;97018.00;;;;5013855;28;20244;-74
2022/06/02 06:51:21;;;;;;;5.10;4.60;;;19.10;99.90;21.90;97016.00;;;;5009349;28;20198;-74
2022/06/02 06:54:18;;;;;;;6.13;3.80;;;19.60;99.90;21.70;97037.00;;;;5008228;28;20217;-74
2022/06/02 06:57:13;;;;;;;4.53;4.13;;;19.90;99.90;22.00;97033.00;;;;5017225;28;20206;-75
2022/06/02 07:00:08;;;;;;;4.03;3.43;;;19.90;99.90;21.60;97042.00;;;;5014975;28;20198;-75
2022/06/02 07:03:10;;;;;;;5.20;4.17;;;20.10;99.90;21.60;97045.00;;;;5009830;28;20583;-72
2022/06/02 07:06:09;;;;;;;3.37;3.07;;;19.80;99.90;21.60;97040.00;;;;5003966;28;20205;-72
2022/06/02 07:09:07;;;;;;;6.13;3.33;;;20.00;99.90;21.80;97042.00;;;;5000752;28;20222;-73
2022/06/02 07:15:40;;;;;;;4.33;2.77;;;20.00;99.90;21.80;97043.00;;;;5007575;28;20221;-72
2022/06/02 07:18:44;;;;;;;3.40;3.10;;;20.10;99.90;21.90;97042.00;;;;5004129;28;20232;-72
2022/06/02 07:21:43;;;;;;;4.13;2.93;;;20.20;99.90;21.80;97039.00;;;;5005896;28;20198;-72
2022/06/02 07:24:40;;;;;;;3.07;2.73;;;20.10;99.90;22.00;97039.00;;;;5007911;28;20206;-72
2022/06/02 07:27:51;;;;;;;3.03;2.73;;;20.20;99.90;22.50;97045.00;;;;5011150;28;20213;-72
2022/06/02 07:30:54;;;;;;;4.07;3.30;;;20.30;99.90;22.70;97035.00;;;;5009065;28;20686;-72
2022/06/02 07:34:01;;;;;;;5.23;3.40;;;20.70;99.90;22.90;97033.00;;;;5008750;28;20194;-72
2022/06/02 07:37:11;;;;;;;2.40;2.20;;;20.80;99.90;22.60;97042.00;;;;5016351;28;20208;-73
2022/06/02 07:40:42;;;;;;;3.10;2.80;;;21.10;99.90;23.10;97049.00;;;;5008598;28;20809;-73
2022/06/02 07:43:51;;;;;;;4.00;2.60;;;21.10;99.90;22.80;97070.00;;;;4996772;28;20212;-73
2022/06/02 07:47:09;;;;;;;4.73;2.77;;;21.20;99.90;23.00;97056.00;;;;5010782;28;20692;-70
2022/06/02 07:50:09;;;;;;;2.60;2.40;;;21.20;99.90;23.40;97070.00;;;;5016650;28;20221;-71
2022/06/02 07:53:13;;;;;;;2.50;2.30;;;21.40;99.90;22.60;97061.00;;;;5012038;28;20691;-69
2022/06/02 07:56:09;;;;;;;2.47;2.27;;;21.40;99.90;22.90;97070.00;;;;5023019;28;20202;-71
2022/06/02 07:59:18;;;;;;;2.50;2.30;;;21.40;99.90;23.00;97057.00;;;;5025995;28;20256;-71
2022/06/02 08:02:30;;;;;;;2.83;2.40;;;21.40;99.90;23.50;97059.00;;;;5014142;28;20576;-69
2022/06/02 08:05:32;;;;;;;2.37;2.27;;;21.50;99.90;23.80;97070.00;;;;5028958;28;20212;-68
2022/06/02 08:08:30;;;;;;;2.03;1.83;;;21.60;99.90;23.70;97063.00;;;;5019646;28;20228;-69
2022/06/02 08:11:34;;;;;;;1.97;1.77;;;21.90;99.90;24.00;97057.00;;;;5008883;28;20645;-69
2022/06/02 08:14:33;;;;;;;3.10;2.37;;;22.00;99.90;24.10;97053.00;;;;5010433;28;20201;-68
2022/06/02 08:17:28;;;;;;;3.07;1.90;;;22.20;99.90;24.80;97072.00;;;;5008908;28;20209;-68
2022/06/02 08:20:37;;;;;;;2.07;1.83;;;22.40;99.90;24.50;97065.00;;;;5017444;28;20202;-68
2022/06/02 08:24:33;;;;;;;4.87;1.70;;;22.60;99.90;24.90;97079.00;;;;5023642;28;20727;-68
2022/06/02 08:27:58;;;;;;;2.33;1.40;;;22.70;99.90;25.40;97070.00;;;;4995164;28;20219;-68
2022/06/02 08:31:05;;;;;;;2.17;1.97;;;23.00;99.90;25.30;97066.00;;;;5015011;28;20213;-68
2022/06/02 08:34:00;;;;;;;2.07;1.80;;;23.20;99.90;25.40;97073.00;;;;5012279;28;20194;-68
2022/06/02 08:37:02;;;;;;;1.67;1.40;;;23.40;99.90;24.70;97070.00;;;;5003888;28;20209;-70
2022/06/02 08:40:19;;;;;;;1.63;1.53;;;23.30;99.90;25.50;97074.00;;;;5009377;28;20209;-68
2022/06/02 08:43:40;;;;;;;1.13;0.93;;;23.30;99.90;25.20;97088.00;;;;5010917;28;20198;-69
2022/06/02 08:47:01;;;;;;;1.57;1.47;;;23.60;99.90;24.20;97083.00;;;;5008247;28;20680;-71
2022/06/02 08:50:24;;;;;;;1.30;1.20;;;23.50;98.80;24.80;97076.00;;;;5011027;28;20734;-71
2022/06/02 08:54:10;;;;;;;1.50;1.20;;;23.40;99.40;25.80;97091.00;;;;5010391;28;20820;-70
2022/06/02 08:57:40;;;;;;;2.77;1.23;;;23.50;98.90;24.50;97081.00;;;;5011264;28;20202;-72
2022/06/02 09:00:55;;;;;;;2.10;1.17;;;23.50;97.30;25.60;97077.00;;;;5010818;28;20683;-72
2022/06/02 09:04:29;;;;;;;2.63;1.57;;;23.60;98.40;26.90;97084.00;;;;5011600;28;20194;-70
2022/06/02 09:07:54;;;;;;;4.53;1.33;;;24.00;99.80;27.30;97087.00;;;;5011214;28;20201;-70
2022/06/02 09:11:07;;;;;;;2.27;1.33;;;24.50;99.20;27.50;97089.00;;;;5009446;28;20949;-71
2022/06/02 09:14:31;;;;;;;1.40;1.20;;;24.90;98.70;27.60;97086.00;;;;5010598;28;20202;-71
2022/06/02 09:17:29;;;;;;;2.13;1.93;;;25.20;96.90;27.70;97087.00;;;;5006906;28;20788;-70
2022/06/02 09:20:45;;;;;;;1.47;1.37;;;25.40;96.60;27.60;97080.00;;;;5007698;28;20597;-71
2022/06/02 09:23:50;;;;;;;1.70;1.60;;;25.60;95.20;27.50;97075.00;;;;5009806;28;20662;-72
2022/06/02 09:27:36;;;;;;;2.70;2.50;;;25.60;94.30;27.30;97085.00;;;;5010743;28;20206;-72
2022/06/02 09:30:42;;;;;;;1.70;1.60;;;25.60;94.80;27.20;97086.00;;;;5008805;28;20229;-69
2022/06/02 09:34:17;;;;;;;4.20;2.00;;;25.50;93.80;28.30;97090.00;;;;5009343;28;20207;-69
2022/06/02 09:38:00;;;;;;;3.13;2.93;;;25.70;95.00;27.50;97080.00;;;;4991104;28;20582;-70
2022/06/02 09:40:52;;;;;;;3.37;2.10;;;25.80;93.20;27.80;97087.00;;;;5010226;28;20211;-72
2022/06/02 09:44:15;;;;;;;5.37;1.97;;;25.90;93.90;27.30;97076.00;;;;5012901;28;20215;-72
2022/06/02 09:47:40;;;;;;;1.97;1.77;;;25.90;92.50;26.90;97084.00;;;;5003767;28;20298;-75
2022/06/02 09:51:03;;;;;;;1.70;1.60;;;25.90;91.40;27.60;97085.00;;;;5006825;28;20223;-69
2022/06/02 09:54:35;;;;;;;2.33;1.90;;;25.80;92.10;28.00;97084.00;;;;5006394;28;20298;-69
2022/06/02 09:57:56;;;;;;;2.53;1.53;;;26.00;93.70;27.80;97081.00;;;;5020841;28;20204;-73
2022/06/02 10:01:25;;;;;;;2.20;1.70;;;26.10;91.80;28.50;97085.00;;;;5019146;28;20326;-74
2022/06/02 10:04:53;;;;;;;1.80;1.70;;;26.30;92.80;27.60;97073.00;;;;5011685;28;20203;-74
2022/06/02 10:07:58;;;;;;;2.37;1.50;;;26.50;87.40;28.50;97091.00;;;;5012516;28;20236;-72
2022/06/02 10:11:08;;;;;;;1.97;1.60;;;26.60;90.30;28.10;97088.00;;;;5020116;28;20727;-74
2022/06/02 10:14:56;;;;;;;4.90;2.50;;;26.50;86.30;27.50;97088.00;;;;5011816;28;20205;-74
2022/06/02 10:18:01;;;;;;;1.37;1.27;;;26.30;87.10;28.50;97089.00;;;;5014167;28;20222;-67
2022/06/02 10:21:10;;;;;;;3.03;1.50;;;26.40;89.30;27.10;97094.00;;;;5020867;28;20198;-68
2022/06/02 10:24:51;;;;;;;1.83;1.60;;;26.40;83.10;28.50;97106.00;;;;5002241;28;20198;-68
2022/06/02 10:28:43;;;;;;;2.23;1.67;;;26.30;89.30;28.70;97099.00;;;;4949575;28;20237;-68
2022/06/02 10:32:16;;;;;;;4.90;1.50;;;26.50;90.30;28.40;97113.00;;;;4967221;28;20233;-69
2022/06/02 10:35:56;;;;;;;2.37;2.10;;;26.60;87.20;28.50;97117.00;;;;4995597;28;20296;-68
2022/06/02 10:39:03;;;;;;;1.30;1.20;;;26.80;87.00;28.40;97114.00;;;;5038599;22;20297;-72
2022/06/02 10:42:17;;;;;;;3.83;1.73;;;26.60;85.80;28.30;97098.00;;;;5029824;28;20209;-72
2022/06/02 10:45:37;;;;;;;1.80;1.70;;;26.50;87.30;28.80;97095.00;;;;5028733;28;20504;-72
2022/06/02 10:49:01;;;;;;;3.37;1.90;;;26.60;87.90;30.20;97053.00;;;;5019168;28;20238;-72
2022/06/02 10:52:47;;;;;;;1.90;1.80;;;27.10;84.50;29.20;97059.00;;;;5024657;28;20208;-72
2022/06/02 10:56:27;;;;;;;2.23;2.13;;;27.80;85.90;29.10;97066.00;;;;5023181;28;20582;-71
2022/06/02 11:00:00;;;;;;;6.50;3.60;;;27.80;81.10;31.10;97063.00;;;;5032587;28;20703;-68
2022/06/02 11:03:43;;;;;;;3.63;1.60;;;28.20;82.70;30.00;97094.00;;;;5031442;28;20211;-70
2022/06/02 11:07:25;;;;;;;3.37;1.53;;;28.50;82.30;28.90;97059.00;;;;5032131;28;20204;-72
2022/06/02 11:10:31;;;;;;;1.60;1.47;;;27.70;80.00;29.50;97043.00;;;;5028161;28;20226;-72
2022/06/02 11:14:19;;;;;;;1.80;1.70;;;28.00;80.60;29.00;97053.00;;;;5027272;28;20204;-70
2022/06/02 11:17:38;;;;;;;3.10;1.83;;;27.60;78.80;29.50;97044.00;;;;5026545;28;20212;-71
2022/06/02 11:21:00;;;;;;;1.83;1.60;;;27.70;80.30;30.70;97035.00;;;;5031111;28;20212;-71
2022/06/02 11:24:38;;;;;;;1.60;1.50;;;28.10;81.50;27.90;97062.00;;;;5032089;28;20204;-71
2022/06/02 11:28:16;;;;;;;1.70;1.60;;;27.70;76.10;28.50;97052.00;;;;4996602;28;20212;-71
2022/06/02 11:31:58;;;;;;;3.20;1.90;;;27.50;78.90;29.50;97059.00;;;;5032079;28;20230;-71
2022/06/02 11:35:44;;;;;;;3.40;1.80;;;27.40;79.30;27.50;97012.00;;;;4994623;28;20207;-70
2022/06/02 11:39:22;;;;;;;2.63;1.87;;;26.90;77.80;28.20;97042.00;;;;5031319;28;20234;-70
2022/06/02 11:42:30;;;;;;;2.27;2.07;;;26.90;79.70;27.30;97066.00;;;;5006992;28;20218;-71
2022/06/02 11:45:37;;;;;;;2.63;2.30;;;26.60;78.70;27.90;97063.00;;;;5035975;28;20204;-71
2022/06/02 11:49:07;;;;;;;2.30;1.93;;;26.50;81.20;30.10;97009.00;;;;5031524;28;20236;-72
2022/06/02 11:53:16;;;;;;;4.83;2.20;;;26.70;83.40;31.80;97016.00;;;;4991093;28;21132;-71
2022/06/02 11:56:14;;;;;;;2.73;1.63;;;27.80;84.90;32.30;97011.00;;;;5000150;28;20598;-71
2022/06/02 12:00:16;;;;;;;2.93;1.90;;;28.80;80.90;33.00;97018.00;;;;5030117;28;20579;-72
2022/06/02 12:03:41;;;;;;;2.38;2.17;;;29.50;78.70;32.40;97001.00;;;;5026041;28;20206;-70
2022/06/02 12:07:22;;;;;;;2.17;1.98;;;30.20;73.50;33.80;97017.00;;;;5018253;28;20741;-71
2022/06/02 12:11:09;;;;;;;2.53;2.00;;;30.60;75.40;33.60;96990.00;;;;5015405;28;20192;-72
2022/06/02 12:14:26;;;;;;;2.42;2.00;;;31.00;68.50;33.70;96990.00;;;;5003344;28;20201;-71
2022/06/02 12:17:52;;;;;;;1.73;1.63;;;31.30;67.90;34.70;96984.00;;;;5031076;28;20202;-71
2022/06/02 12:21:27;;;;;;;1.92;1.80;;;30.90;81.40;35.70;96982.00;;;;5030515;28;20203;-71
2022/06/02 12:24:32;;;;;;;4.10;2.03;;;;;33.80;96978.00;;;;5017518;28;20684;-72
2022/06/02 12:27:53;;;;;;;2.78;2.13;;;32.10;64.40;35.00;96968.00;;;;5027494;28;20204;-71
2022/06/02 12:31:20;;;;;;;3.70;2.60;;;32.20;66.30;31.90;97051.00;;;;5031655;28;20589;-71
2022/06/02 12:34:50;;;;;;;2.42;2.22;;;31.90;62.00;31.90;96972.00;;;;5030552;28;20218;-71
2022/06/02 12:38:16;;;;;;;2.08;1.88;;;30.90;64.40;35.20;97013.00;;;;5006880;28;20795;-71
2022/06/02 12:41:31;;;;;;;2.50;2.30;;;31.30;67.60;33.80;96979.00;;;;5028297;28;20216;-71
2022/06/02 12:44:51;;;;;;;2.17;1.67;;;31.70;62.00;33.50;97030.00;;;;5027151;28;20208;-71
2022/06/02 12:48:29;;;;;;;1.98;1.88;;;31.50;64.90;32.30;97028.00;;;;5022490;28;20207;-71
2022/06/02 12:51:44;;;;;;;2.47;2.10;;;31.10;65.00;31.30;97014.00;;;;5030149;28;20227;-71
2022/06/02 12:55:33;;;;;;;2.28;2.08;;;30.40;63.70;31.10;97024.00;;;;5024028;28;20211;-71
2022/06/02 12:59:23;;;;;;;2.38;2.17;;;29.90;66.30;30.40;97029.00;;;;5026073;28;20243;-70
2022/06/02 13:02:20;;;;;;;2.67;2.20;;;29.30;66.20;30.30;97022.00;;;;5024684;28;20207;-71
2022/06/02 13:06:03;;;;;;;2.17;1.80;;;28.90;67.30;29.60;97027.00;;;;5027304;28;20219;-71
2022/06/02 13:09:29;;;;;;;3.38;2.63;;;28.50;67.00;29.50;97025.00;;;;5027684;28;20235;-69
2022/06/02 13:12:57;;;;;;;2.57;2.37;;;28.20;68.80;29.10;97030.00;;;;5023845;28;20241;-71
2022/06/02 13:16:41;;;;;;;2.33;1.93;;;27.80;69.70;28.30;97038.00;;;;5026329;28;20203;-69
2022/06/02 13:19:59;;;;;;;4.20;3.67;;;27.30;71.10;28.30;97034.00;;;;5029018;28;20233;-70
2022/06/02 13:23:39;;;;;;;3.50;2.73;;;26.90;73.10;28.00;97022.00;;;;5026024;28;20223;-70
2022/06/02 13:27:19;;;;;;;3.03;2.73;;;26.50;74.40;28.00;97021.00;;;;5020182;28;20700;-70
2022/06/02 13:30:50;;;;;;;2.97;2.60;;;26.30;76.50;27.80;97032.00;;;;5015636;28;20207;-70
2022/06/02 13:34:21;;;;;;;4.73;3.10;;;26.20;78.50;27.80;97029.00;;;;4977176;28;20250;-70
2022/06/02 13:37:45;;;;;;;6.13;3.10;;;26.10;81.10;27.80;97023.00;;;;5027610;28;20215;-70
2022/06/02 13:40:53;;;;;;;2.40;2.30;;;26.00;81.90;27.50;97020.00;;;;5028828;28;20196;-70
2022/06/02 13:43:55;;;;;;;6.00;2.97;;;25.90;79.50;27.00;97031.00;;;;5028404;28;20220;-70
2022/06/02 13:47:37;;;;;;;9.87;3.40;;;25.80;83.30;26.90;97043.00;;;;5024123;28;20227;-70
2022/06/02 13:50:55;;;;;;;4.67;2.97;;;25.60;83.90;26.10;97047.00;;;;5027434;28;20682;-70
2022/06/02 13:57:48;;;;;;;2.73;2.53;;;25.00;86.10;26.60;97037.00;;;;5022412;28;20213;-70
2022/06/02 14:01:01;;;;;;;4.03;3.07;;;24.90;86.80;26.50;97046.00;;;;5014033;28;20201;-70
2022/06/02 14:04:27;;;;;;;3.23;2.93;;;24.80;86.60;26.10;97065.00;;;;5022455;28;20822;-70
2022/06/02 14:07:36;;;;;;;3.47;2.67;;;24.70;85.60;26.30;97063.00;;;;5016030;28;20658;-70
2022/06/02 14:10:46;;;;;;;4.57;2.50;;;24.60;89.00;26.20;97069.00;;;;5019837;28;20198;-70
2022/06/02 14:14:14;;;;;;;2.50;2.30;;;24.60;91.10;25.50;97068.00;;;;5025433;28;20588;-70
2022/06/02 14:17:17;;;;;;;3.77;2.40;;;24.30;92.70;24.90;97074.00;;;;5019197;28;20870;-70
2022/06/02 14:20:37;;;;;;;3.43;2.30;;;24.00;94.60;25.10;97088.00;;;;5026954;28;20201;-70
2022/06/02 14:23:44;;;;;;;2.47;2.00;;;23.80;95.80;24.80;97092.00;;;;5020853;28;20201;-70
2022/06/02 14:26:54;;;;;;;5.60;2.80;;;23.60;97.80;24.60;97118.00;;;;5027795;28;20205;-70
2022/06/02 14:30:00;;;;;;;2.53;2.33;;;23.70;99.90;24.50;97123.00;;;;5020332;28;20577;-70
2022/06/02 14:33:00;;;;;;;2.30;2.10;;;23.20;99.90;24.50;97120.00;;;;5023344;28;20213;-70
2022/06/02 14:35:58;;;;;;;3.27;2.20;;;23.10;99.90;24.20;97136.00;;;;5022919;28;20201;-70
2022/06/02 14:39:06;;;;;;;2.73;1.80;;;23.00;99.90;23.70;97128.00;;;;5017390;28;20225;-70